DRI Storm Peak Lab. Weather observations

Data are for 5 minute period ending at time listed.
 Day   Time    Ave.   Ave.  Ave.  Vector  Max.   Total    Baro.    Solar      Aerosol      Ave.  Ultrafine   Snow  
  of    of     Air    Rel.  Wind   Wind   Wind  Precip.   Pres.  Radiation   Aerosol      Ozone   Aerosol    Depth 
Year   Day     Temp.  Hum.  Speed  Dir.   Gust                               Ave.   Max.            Ave.           
2014   (MST)    F      %     mph   deg.    mph    in.      mb.     w/m2         #/cm3      ppbv    #/cm3      in.  
-------------------------------------------------------------------------------------------------------------------
 294    3:35   40.7    65    7.9   213    11.8   999.00    692.3      0.0    -1427       0   999.0        0     0.0
 294    3:40   40.8    65    7.4   214    10.6   999.00    692.3      0.0    -1427       0   999.0        0     0.0
 294    3:45   40.7    65    8.5   205    14.4   999.00    692.4      0.0    -1427       0   999.0        0     0.0
 294    3:50   40.2    66   12.1   185    18.4   999.00    692.3      0.0    -1427       0   999.0        0     0.0
 294    3:55   39.9    67   11.1   183    15.8   999.00    692.4      0.0    -1428       0   999.0        0     0.0
 294    4:00   39.8    67   11.7   177    16.7   999.00    692.4      0.0    -1428       0   999.0        0     0.0
 294    4:05   39.8    68   10.9   186    13.9   999.00    692.4      0.0    -1428       0   999.0        0     0.0
 294    4:10   39.7    68   11.7   183    15.6   999.00    692.4      0.0    -1428       0   999.0        0     0.0
 294    4:15   39.3    70    8.5   198    13.2   999.00    692.5      0.0    -1428       0   999.0        0     0.0
 294    4:20   38.6    72    9.7   197    22.3   999.00    692.6      0.0    -1429       0   999.0        0     0.0
 294    4:25   37.7    78    7.9   199    13.9   999.00    692.6      0.0    -1429       0   999.0        0     0.0
 294    4:30   37.7    79   10.2   207    16.7   999.00    692.5      0.0    -1428       0   999.0        0     0.0
 294    4:35   37.6    81    7.0   215    11.3   999.00    692.5      0.0    -1428       0   999.0        0     0.0
 294    4:40   37.7    82    6.1   223     8.1   999.00    692.4      0.0    -1428       0   999.0        0     0.0
 294    4:45   38.0    81    5.9   225     7.6   999.00    692.4      0.0    -1428       0   999.0        0     0.0
 294    4:50   38.1    81    3.8   219     5.7   999.00    692.4      0.0    -1428       0   999.0        0     0.0
 294    4:55   38.3    78    5.0   218     6.8   999.00    692.4      0.0    -1429       0   999.0        0     0.0
 294    5:00   38.7    74    7.6   211    11.8   999.00    692.3      0.0    -1429       0   999.0        0     0.0
 294    5:05   38.7    75    7.5   207    11.5   999.00    692.3      0.0    -1429       0   999.0        0     0.0
 294    5:10   38.8    75    9.1   207    14.6   999.00    692.3      0.0    -1429       0   999.0        0     0.0
 294    5:15   38.9    75    7.7   208    12.6   999.00    692.3      0.0    -1429       0   999.0        0     0.0
 294    5:20   38.9    74    7.8   210    12.2   999.00    692.3      0.0    -1429       0   999.0        0     0.0
 294    5:25   39.1    73    8.9   215    12.6   999.00    692.3      0.0    -1429       0   999.0        0     0.0
 294    5:30   39.1    73    7.3   207    13.3   999.00    692.3      0.0    -1429       0   999.0        0     0.0
 294    5:35   39.3    72    6.9   211     9.4   999.00    692.3      0.0    -1429       0   999.0        0     0.0
 294    5:40   39.2    72    7.9   203    12.6   999.00    692.3      0.0    -1429       0   999.0        0     0.0
 294    5:45   39.0    72    8.3   201    11.8   999.00    692.3      0.0    -1430       0   999.0        0     0.0
 294    5:50   38.9    73   10.6   196    15.2   999.00    692.2      0.0    -1430       0   999.0        0     0.0
 294    5:55   39.0    73    9.5   198    14.6   999.00    692.3      0.0    -1430       0   999.0        0     0.0
 294    6:00   39.1    72    8.4   199    12.2   999.00    692.3      0.0    -1430       0   999.0        0     0.0
 294    6:05   39.0    73   10.2   194    14.1   999.00    692.2      0.0    -1430       0   999.0        0     0.0
 294    6:10   38.9    74    9.8   193    13.2   999.00    692.3      0.0    -1430       0   999.0        0     0.0
 294    6:15   39.0    73   13.0   190    15.9   999.00    692.3      0.0    -1430       0   999.0        0     0.0
 294    6:20   39.0    74   11.5   183    13.2   999.00    692.2      0.0    -1430       0   999.0        0     0.0
 294    6:25   38.8    74   11.8   177    14.8   999.00    692.2      0.0    -1430       0   999.0        0     0.0
 294    6:30   38.8    74   12.3   174    16.3   999.00    692.3      0.0    -1430       0   999.0        0     0.0
 294    6:35   39.0    73   13.2   181    16.5   999.00    692.3      0.0    -1430       0   999.0        0     0.0
 294    6:40   39.4    71   12.7   174    18.5   999.00    692.2      0.0    -1430       0   999.0        0     0.0
 294    6:45   39.2    72   12.2   179    17.4   999.00    692.3      0.0    -1430       0   999.0        0     0.0
 294    6:50   39.2    72   12.3   183    16.9   999.00    692.3      0.0    -1430       0   999.0        0     0.0
 294    6:55   39.5    72   11.5   183    18.0   999.00    692.3      0.0    -1430       0   999.0        0     0.0
 294    7:00   39.4    72   10.9   178    18.2   999.00    692.3      0.0    -1430       0   999.0        0     0.0
 294    7:05   39.4    72   10.2   182    15.0   999.00    692.3      0.0    -1430       0   999.0        0     0.0
 294    7:10   39.2    73   11.3   170    16.7   999.00    692.3      0.0    -1430       0   999.0        0     0.0
 294    7:15   39.0    73   13.4   166    18.4   999.00    692.4      0.0    -1430       0   999.0        0     0.0
 294    7:20   38.8    74   12.6   171    18.5   999.00    692.3      0.0    -1430       0   999.0        0     0.0
 294    7:25   38.7    75   12.3   164    18.7   999.00    692.3      0.0    -1431       0   999.0        0     0.0
 294    7:30   38.7    74   12.0   178    16.3   999.00    692.4      0.0    -1431       0   999.0        0     0.0
 294    7:35   38.8    74   12.1   173    17.1   999.00    692.4      0.0    -1431       0   999.0        0     0.0
 294    7:40   38.8    74   11.0   177    16.7   999.00    692.4      0.0    -1430       0   999.0        0     0.0
 294    7:45   38.8    74    9.9   174    13.7   999.00    692.4      0.0    -1430       0   999.0        0     0.0
 294    7:50   39.1    73    9.8   181    17.2   999.00    692.4      0.0    -1430       0   999.0        0     0.0
 294    7:55   39.2    73    9.9   183    17.1   999.00    692.4      0.0    -1430       0   999.0        0     0.0
 294    8:00   39.3    73    8.6   188    14.4   999.00    692.4      0.0    -1430       0   999.0        0     0.0
 294    8:05   39.4    72    7.3   192    10.7   999.00    692.4      0.0    -1430       0   999.0        0     0.0
 294    8:10   39.5    72    9.0   198    13.5   999.00    692.4      0.0    -1430       0   999.0        0     0.0
 294    8:15   39.7    71   10.5   208    15.2   999.00    692.4      0.0    -1430       0   999.0        0     0.0
 294    8:20   40.2    70   11.2   203    17.1   999.00    692.4      0.0    -1429       0   999.0        0     0.0
 294    8:25   40.2    71    9.0   202    16.5   999.00    692.4      0.0    -1429       0   999.0        0     0.0
 294    8:30   40.3    71    9.6   200    14.8   999.00    692.3      0.0    -1429       0   999.0        0     0.0
 294    8:35   40.7    70    8.1   206    15.2   999.00    692.3      0.0    -1429       0   999.0        0     0.0
 294    8:40   40.3    71    9.7   196    15.2   999.00    692.4      0.0    -1429       0   999.0        0     0.0
 294    8:45   40.2    71    8.3   198    14.8   999.00    692.4      0.0    -1429       0   999.0        0     0.0
 294    8:50   40.5    70    8.6   194    15.4   999.00    692.3      0.0    -1430       0   999.0        0     0.0
 294    8:55   40.6    70    8.2   202    13.2   999.00    692.4      0.0    -1430       0   999.0        0     0.0
 294    9:00   40.2    70    8.9   202    13.0   999.00    692.4      0.0    -1429       0   999.0        0     0.0
 294    9:05   40.6    70    7.9   200    12.2   999.00    692.3      0.0    -1429       0   999.0        0     0.0
 294    9:10   41.2    68   10.1   200    15.6   999.00    692.4      0.0    -1429       0   999.0        0     0.0
 294    9:15   41.7    67    6.4   209    14.6   999.00    692.3      0.0    -1429       0   999.0        0     0.0
 294    9:20   41.1    68    7.9   201    12.8   999.00    692.3      0.0    -1429       0   999.0        0     0.0
 294    9:25   40.9    68    9.1   202    13.5   999.00    692.3      0.0    -1429       0   999.0        0     0.0
 294    9:30   41.1    68    8.9   207    16.3   999.00    692.2      0.0    -1428       0   999.0        0     0.0
 294    9:35   41.6    67    9.9   199    14.6   999.00    692.1      0.0    -1428       0   999.0        0     0.0
 294    9:40   41.5    67    9.0   202    15.6   999.00    692.2      0.0    -1428       0   999.0        0     0.0
 294    9:45   40.6    68   10.5   200    18.4   999.00    692.2      0.0    -1428       0   999.0        0     0.0
 294    9:50   40.9    69    9.1   202    15.6   999.00    692.2      0.0    -1428       0   999.0        0     0.0
 294    9:55   40.3    70    9.1   196    14.3   999.00    692.2      0.0    -1428       0   999.0        0     0.0
 294   10:00   40.3    71    7.0   199    10.9   999.00    692.2      0.0    -1428       0   999.0        0     0.0
 294   10:05   40.1    72    7.2   190    12.8   999.00    692.2      0.0    -1428       0   999.0        0     0.0
 294   10:10   39.8    72    8.7   193    13.5   999.00    692.2      0.0    -1428       0   999.0        0     0.0
 294   10:15   39.6    74    8.4   198    14.4   999.00    692.2      0.0    -1428       0   999.0        0     0.0
 294   10:20   39.5    75    7.8   206    11.8   999.00    692.1      0.0    -1428       0   999.0        0     0.0
 294   10:25   39.6    76   10.2   198    15.9   999.00    692.1      0.0    -1427       0   999.0        0     0.0
 294   10:30   39.3    79   13.7   166    22.5   999.00    692.0      0.0    -1427       0   999.0        0     0.0
 294   10:35   38.0    86   14.5   181    24.0   999.00    692.1      0.0    -1427       0   999.0        0     0.0
 294   10:40   37.4    87   13.9   186    20.8   999.00    692.1      0.0    -1427       0   999.0        0     0.0
 294   10:45   37.3    85   15.3   182    25.2   999.00    692.0      0.0    -1427       0   999.0        0     0.0
 294   10:50   36.9    88   13.7   165    19.9   999.00    692.0      0.0    -1427       0   999.0        0     0.0
 294   10:55   36.5    91   12.5   154    17.2   999.00    691.9      0.0    -1427       0   999.0        0     0.0
 294   11:00   36.4    91   10.8   157    15.0   999.00    691.9      0.0    -1427       0   999.0        0     0.0
 294   11:05   37.0    88    9.9   173    15.2   999.00    691.8      0.0    -1427       0   999.0        0     0.0
 294   11:10   38.1    84    7.7   182    13.9   999.00    691.8      0.0    -1427       0   999.0        0     0.0
 294   11:15   39.4    81    7.0   197    11.8   999.00    691.7      0.0    -1426       0   999.0        0     0.0
 294   11:20   40.8    76    9.8   197    16.1   999.00    691.7      0.0    -1426       0   999.0        0     0.0
 294   11:25   39.7    76   12.3   202    18.2   999.00    691.7      0.0    -1426       0   999.0        0     0.0
 294   11:30   40.0    75   11.4   207    18.2   999.00    691.7      0.0    -1426       0   999.0        0     0.0
 294   11:35   39.9    74    9.9   203    17.8   999.00    691.7      0.0    -1426       0   999.0        0     0.0
 294   11:40   39.5    76   10.1   208    17.6   999.00    691.7      0.0    -1426       0   999.0        0     0.0
 294   11:45   40.2    75    9.6   202    15.4   999.00    691.6      0.0    -1426       0   999.0        0     0.0
 294   11:50   40.7    74   10.7   198    16.7   999.00    691.5      0.0    -1426       0   999.0        0     0.0
 294   11:55   40.5    74   10.4   204    17.4   999.00    691.4      0.0    -1425       0   999.0        0     0.0
 294   12:00   41.3    74    6.9   191    10.7   999.00    691.4      0.0    -1425       0   999.0        0     0.0
 294   12:05   40.6    73    6.3   189    13.3   999.00    691.3      0.0    -1425       0   999.0        0     0.0
 294   12:10   40.7    77    6.0   173     9.4   999.00    691.2      0.0    -1425       0   999.0        0     0.0
 294   12:15   40.8    78    4.2   200     6.5   999.00    691.1      0.0    -1425       0   999.0        0     0.0
 294   12:20   39.9    82    6.7   250     9.8   999.00    691.0      0.0    -1425       0   999.0        0     0.0
 294   12:25   39.1    85    8.1   279    12.0   999.00    691.0      0.0    -1425       0   999.0        0     0.0
 294   12:30   37.7    91    7.7   247    12.8   999.00    691.1      0.0    -1425       0   999.0        0     0.0
 294   12:35   36.6    94   10.2   199    18.2   999.00    691.0      0.0    -1424       0   999.0        0     0.0
 294   12:40   37.5    92   12.6   199    21.3   999.00    691.0      0.0    -1424       0   999.0        0     0.0
 294   12:45   38.0    90   10.3   197    15.4   999.00    690.9      0.0    -1424       0   999.0        0     0.0
 294   12:50   38.5    89   11.4   193    15.9   999.00    690.9      0.0    -1424       0   999.0        0     0.0
 294   12:55   38.9    88    9.8   192    16.3   999.00    690.8      0.0    -1424       0   999.0        0     0.0
 294   13:00   39.1    88    8.5   192    13.5   999.00    690.8      0.0    -1424       0   999.0        0     0.0
 294   13:05   39.2    85   10.1   195    16.9   999.00    690.8      0.0    -1424       0   999.0        0     0.0
 294   13:10   39.2    86   10.5   183    15.6   999.00    690.7      0.0    -1424       0   999.0        0     0.0
 294   13:15   39.4    84    9.9   182    15.8   999.00    690.7      0.0    -1424       0   999.0        0     0.0
 294   13:20   39.4    84    9.5   186    12.6   999.00    690.6      0.0    -1424       0   999.0        0     0.0
 294   13:25   39.6    83    8.0   187    13.7   999.00    690.6      0.0    -1424       0   999.0        0     0.0
 294   13:30   39.8    82    6.3   199     9.6   999.00    690.6      0.0    -1424       0   999.0        0     0.0
 294   13:35   40.8    79    7.1   197    10.4   999.00    690.6      0.0    -1423       0   999.0        0     0.0
 294   13:40   41.0    75    7.6   197    14.6   999.00    690.5      0.0    -1423       0   999.0        0     0.0
 294   13:45   40.9    73    6.8   206    13.7   999.00    690.5      0.0    -1423       0   999.0        0     0.0
 294   13:50   41.5    73    7.3   212    10.7   999.00    690.5      0.0    -1423       0   999.0        0     0.0
 294   13:55   42.7    72    7.0   216    13.0   999.00    690.4      0.0    -1423       0   999.0        0     0.0
 294   14:00   42.3    69    9.8   219    16.3   999.00    690.4      0.0    -1423       0   999.0        0     0.0
 294   14:05   42.4    70    7.7   232    14.3   999.00    690.5      0.0    -1423       0   999.0        0     0.0
 294   14:10   42.3    68   10.4   222    15.9   999.00    690.4      0.0    -1423       0   999.0        0     0.0
 294   14:15   41.9    69    8.0   211    11.7   999.00    690.4      0.0    -1423       0   999.0        0     0.0
 294   14:20   41.6    69    7.7   208    13.0   999.00    690.4      0.0    -1423       0   999.0        0     0.0
 294   14:25   41.8    69    7.1   217    11.1   999.00    690.4      0.0    -1423       0   999.0        0     0.0
 294   14:30   42.0    68    6.0   216     9.8   999.00    690.5      0.0    -1423       0   999.0        0     0.0
 294   14:35   41.8    68    7.6   218    13.2   999.00    690.4      0.0    -1423       0   999.0        0     0.0
 294   14:40   41.7    68    4.8   209     9.1   999.00    690.4      0.0    -1422       0   999.0        0     0.0
 294   14:45   41.9    68    4.7   209     6.8   999.00    690.4      0.0    -1422       0   999.0        0     0.0
 294   14:50   41.9    69    5.5   219    10.6   999.00    690.4      0.0    -1422       0   999.0        0     0.0
 294   14:55   41.5    69    5.8   232     9.2   999.00    690.4      0.0    -1422       0   999.0        0     0.0
 294   15:00   41.5    68    4.9   235     6.8   999.00    690.3      0.0    -1422       0   999.0        0     0.0
 294   15:05   41.5    68    6.4   239     8.9   999.00    690.3      0.0    -1422       0   999.0        0     0.0
 294   15:10   41.4    68    7.5   244    11.5   999.00    690.3      0.0    -1422       0   999.0        0     0.0
 294   15:15   41.4    68    6.2   244    10.6   999.00    690.3      0.0    -1422       0   999.0        0     0.0
 294   15:20   41.2    70    5.8   254     9.1   999.00    690.2      0.0    -1422       0   999.0        0     0.0
 294   15:25   41.1    71    5.8   252     7.8   999.00    690.3      0.0    -1422       0   999.0        0     0.0
 294   15:30   41.1    70    8.1   240    11.8   999.00    690.3      0.0    -1422       0   999.0        0     0.0
 294   15:35   41.1    70    7.9   239    14.8   999.00    690.3      0.0    -1422       0   999.0        0     0.0
 294   15:40   41.2    70    9.8   251    15.9   999.00    690.3      0.0    -1422       0   999.0        0     0.0
 294   15:45   41.1    71    9.2   248    15.2   999.00    690.3      0.0    -1422       0   999.0        0     0.0
 294   15:50   41.1    71    9.7   254    15.8   999.00    690.2      0.0    -1422       0   999.0        0     0.0
 294   15:55   41.0    71    9.4   257    14.8   999.00    690.2      0.0    -1422       0   999.0        0     0.0
 294   16:00   40.9    72    9.5   260    15.0   999.00    690.2      0.0    -1422       0   999.0        0     0.0
 294   16:05   40.7    73   10.4   250    13.9   999.00    690.2      0.0    -1422       0   999.0        0     0.0
 294   16:10   40.6    73   10.9   231    14.1   999.00    690.2      0.0    -1422       0   999.0        0     0.0
 294   16:15   40.5    73    8.3   235    12.8   999.00    690.2      0.0    -1422       0   999.0        0     0.0
 294   16:20   40.3    72   11.6   234    14.8   999.00    690.1      0.0    -1422       0   999.0        0     0.0
 294   16:25   40.2    72   10.0   231    14.4   999.00    690.1      0.0    -1423       0   999.0        0     0.0
 294   16:30   40.1    72    6.4   217     9.6   999.00    690.2      0.0    -1423       0   999.0        0     0.0
 294   16:35   40.1    72    5.8   202    10.0   999.00    690.2      0.0    -1423       0   999.0        0     0.0
 294   16:40   40.2    73    9.2   191    13.5   999.00    690.2      0.0    -1423       0   999.0        0     0.0
 294   16:45   40.3    74    9.4   182    13.3   999.00    690.2      0.0    -1423       0   999.0        0     0.0
 294   16:50   40.2    75    9.4   182    12.0   999.00    690.2      0.0    -1423       0   999.0        0     0.0
 294   16:55   40.2    76    8.7   194    12.4   999.00    690.3      0.0    -1423       0   999.0        0     0.0
 294   17:00   40.2    76    7.3   200     9.6   999.00    690.3      0.0    -1423       0   999.0        0     0.0
 294   17:05   40.2    76    8.0   199    11.8   999.00    690.2      0.0    -1423       0   999.0        0     0.0
 294   17:10   40.2    75    8.8   195    12.8   999.00    690.2      0.0    -1423       0   999.0        0     0.0
 294   17:15   40.2    74   10.0   196    16.5   999.00    690.2      0.0    -1423       0   999.0        0     0.0
 294   17:20   40.1    74    7.8   205    13.7   999.00    690.1      0.0    -1423       0   999.0        0     0.0
 294   17:25   39.9    74    6.6   210     9.4   999.00    690.1      0.0    -1423       0   999.0        0     0.0
 294   17:30   39.8    73    8.1   216    12.2   999.00    690.1      0.0    -1423       0   999.0        0     0.0
 294   17:35   39.8    73    9.1   216    12.2   999.00    690.1      0.0    -1423       0   999.0        0     0.0
 294   17:40   39.8    72    8.4   216    13.9   999.00    690.2      0.0    -1423       0   999.0        0     0.0
 294   17:45   39.7    73    8.4   216    12.6   999.00    690.2      0.0    -1423       0   999.0        0     0.0
 294   17:50   39.6    73    7.2   207    13.2   999.00    690.2      0.0    -1423       0   999.0        0     0.0
 294   17:55   39.5    74    8.2   205    14.3   999.00    690.2      0.0    -1423       0   999.0        0     0.0
 294   18:00   39.5    74    7.0   202    13.2   999.00    690.3      0.0    -1424       0   999.0        0     0.0
 294   18:05   39.5    75    9.2   199    13.3   999.00    690.4      0.0    -1424       0   999.0        0     0.0
 294   18:10   39.3    76    8.0   204    14.1   999.00    690.4      0.0    -1424       0   999.0        0     0.0
 294   18:15   39.2    77    7.8   198    11.3   999.00    690.4      0.0    -1424       0   999.0        0     0.0
 294   18:20   39.1    77    9.2   188    12.6   999.00    690.4      0.0    -1424       0   999.0        0     0.0
 294   18:25   39.1    77   10.3   188    14.6   999.00    690.4      0.0    -1424       0   999.0        0     0.0
 294   18:30   39.1    77    9.8   197    15.8   999.00    690.4      0.0    -1424       0   999.0        0     0.0
 294   18:35   39.0    77    9.3   195    14.1   999.00    690.5      0.0    -1424       0   999.0        0     0.0
 294   18:40   39.1    77    8.6   201    14.3   999.00    690.5      0.0    -1424       0   999.0        0     0.0
 294   18:45   39.2    77    7.8   205    11.8   999.00    690.6      0.0    -1425       0   999.0        0     0.0
 294   18:50   39.1    78    8.2   203    13.0   999.00    690.6      0.0    -1425       0   999.0        0     0.0
 294   18:55   39.0    78    7.8   199    11.7   999.00    690.6      0.0    -1425       0   999.0        0     0.0
 294   19:00   39.0    79    7.8   200    11.5   999.00    690.6      0.0    -1425       0   999.0        0     0.0
 294   19:05   39.0    79    6.7   206    10.6   999.00    690.6      0.0    -1425       0   999.0        0     0.0
 294   19:10   38.9    79    7.4   214    10.4   999.00    690.5      0.0    -1425       0   999.0        0     0.0
 294   19:15   38.8    80    7.2   204    10.4   999.00    690.5      0.0    -1425       0   999.0        0     0.0
 294   19:20   38.6    81   10.4   194    16.1   999.00    690.5      0.0    -1425       0   999.0        0     0.0
 294   19:25   38.4    82    9.9   176    16.7   999.00    690.4      0.0    -1424       0   999.0        0     0.0
 294   19:30   38.2    83   10.5   169    16.5   999.00    690.4      0.0    -1424       0   999.0        0     0.0
 294   19:35   38.1    83    8.8   172    14.4   999.00    690.4      0.0    -1424       0   999.0        0     0.0
 294   19:40   38.4    79    7.8   194    11.7   999.00    690.4      0.0    -1424       0   999.0        0     0.0
 294   19:45   38.5    80    9.7   194    15.0   999.00    690.4      0.0    -1424       0   999.0        0     0.0
 294   19:50   38.4    82    7.9   188    10.7   999.00    690.4      0.0    -1424       0   999.0        0     0.0
 294   19:55   38.2    83   10.6   190    15.2   999.00    690.4      0.0    -1424       0   999.0        0     0.0
 294   20:00   38.2    83    9.0   193    14.3   999.00    690.4      0.0    -1425       0   999.0        0     0.0
 294   20:05   38.2    84    9.3   195    14.1   999.00    690.5      0.0    -1425       0   999.0        0     0.0
 294   20:10   38.0    85    7.0   196    10.6   999.00    690.5      0.0    -1425       0   999.0        0     0.0
 294   20:15   37.8    86    6.1   204    10.9   999.00    690.5      0.0    -1425       0   999.0        0     0.0
 294   20:20   37.3    88    9.8   222    14.8   999.00    690.6      0.0    -1425       0   999.0        0     0.0
 294   20:25   36.9    90    6.7   213    10.2   999.00    690.6      0.0    -1425       0   999.0        0     0.0
 294   20:30   36.1    92    4.2   227     6.6   999.00    690.6      0.0    -1425       0   999.0        0     0.0
 294   20:35   34.5    97    4.7   271     8.3   999.00    690.7      0.0    -1425       0   999.0        0     0.0
 294   20:40   34.5    99    4.4   240     7.4   999.00    690.7      0.0    -1426       0   999.0        0     0.0
 294   20:45   34.7    99    5.7   214    10.2   999.00    690.7      0.0    -1426       0   999.0        0     0.0
 294   20:50   35.3    98    8.3   162    11.1   999.00    690.5      0.0    -1425       0   999.0        0     0.0
 294   20:55   35.6    96   11.4   166    13.9   999.00    690.5      0.0    -1425       0   999.0        0     0.0
 294   21:00   35.7    95   10.4   153    14.1   999.00    690.3      0.0    -1425       0   999.0        0     0.0
 294   21:05   35.5    95    9.8   211    14.8   999.00    690.4      0.0    -1425       0   999.0        0     0.0
 294   21:10   33.0    96   15.5   265    26.4   999.00    690.6      0.0    -1426       0   999.0        0     0.0
 294   21:15   31.7    98   14.6   238    22.6   999.00    690.8      0.0    -1426       0   999.0        0     0.0
 294   21:20   31.4    99   12.3   256    20.0   999.00    690.7      0.0    -1426       0   999.0        0     0.0
 294   21:25   31.1   100   11.8   278    16.5   999.00    690.7      0.0    -1426       0   999.0        0     0.0
 294   21:30   30.9   100    9.8   268    14.1   999.00    691.0      0.0    -1427       0   999.0        0     0.0
 294   21:35   30.8   100   12.4   285    17.6   999.00    690.9      0.0    -1427       0   999.0        0     0.0
 294   21:40   30.6   100   12.1   273    18.2   999.00    691.0      0.0    -1428       0   999.0        0     0.0
 294   21:45   30.5   100   11.1   282    21.9   999.00    691.1      0.0    -1428       0   999.0        0     0.0
 294   21:50   30.7   100   10.7   257    21.3   999.00    691.1      0.0    -1428       0   999.0        0     0.0
 294   21:55   30.8   100   15.2   275    26.2   999.00    691.1      0.0    -1429       0   999.0        0     0.0
 294   22:00   30.6   100   15.3   279    22.6   999.00    691.1      0.0    -1429       0   999.0        0     0.0
 294   22:05   30.4   100   15.8   290    23.4   999.00    691.0      0.0    -1430       0   999.0        0     0.0
 294   22:10   30.1   100   15.1   288    21.5   999.00    691.1      0.0    -1431       0   999.0        0     0.0
 294   22:15   29.5   100   13.2   290    22.5   999.00    691.1      0.0    -1431       0   999.0        0     0.0
 294   22:20   29.1   100   15.9   295    21.7   999.00    691.1      0.0    -1432       0   999.0        0     0.0
 294   22:25   29.1   100   16.6   300    23.0   999.00    691.0      0.0    -1432       0   999.0        0     0.0
 294   22:30   29.1   100   14.6   300    19.9   999.00    691.1      0.0    -1433       0   999.0        0     0.0
 294   22:35   29.1   100   13.4   304    18.5   999.00    691.1      0.0    -1433       0   999.0        0     0.0
 294   22:40   29.1   100   12.4   309    16.1   999.00    691.0      0.0    -1433       0   999.0        0     0.0
 294   22:45   29.3   100    9.8   313    13.5   999.00    691.0      0.0    -1434       0   999.0        0     0.0
 294   22:50   29.2   100   11.4   312    15.9   999.00    691.0      0.0    -1434       0   999.0        0     0.0
 294   22:55   29.1   100    8.9   306    12.8   999.00    691.1      0.0    -1434       0   999.0        0     0.0
 294   23:00   29.0   100    8.3   294    11.3   999.00    691.1      0.0    -1435       0   999.0        0     0.0
 294   23:05   28.8   100    7.3   287    11.7   999.00    691.2      0.0    -1435       0   999.0        0     0.0
 294   23:10   28.7   100    7.2   283    12.0   999.00    691.2      0.0    -1435       0   999.0        0     0.0
 294   23:15   29.0   100    7.7   277    11.1   999.00    691.2      0.0    -1435       0   999.0        0     0.0
 294   23:20   29.1   100    7.8   294    10.7   999.00    691.1      0.0    -1435       0   999.0        0     0.0
 294   23:25   29.3   100    8.1   307    12.0   999.00    691.1      0.0    -1435       0   999.0        0     0.0
 294   23:30   29.4   100    8.6   302    12.2   999.00    691.2      0.0    -1435       0   999.0        0     0.0
 294   23:35   29.3   100    7.0   305     9.1   999.00    691.2      0.0    -1436       0   999.0        0     0.0
 294   23:40   29.2   100    6.4   298     9.2   999.00    691.2      0.0    -1436       0   999.0        0     0.0
 294   23:45   29.4   100    7.3   272    11.1   999.00    691.3      0.0    -1436       0   999.0        0     0.0
 294   23:50   29.2   100    8.8   264    15.0   999.00    691.3      0.0    -1436       0   999.0        0     0.0
 294   23:55   29.0   100   11.3   255    17.6   999.00    691.3      0.0    -1436       0   999.0        0     0.0
 295    0:00   28.9   100   13.1   255    18.0   999.00    691.3      0.0    -1436       0   999.0        0     0.0
 295    0:05   28.9   100   11.7   258    16.5   999.00    691.3      0.0    -1436       0   999.0        0     0.0
 295    0:10   28.8   100    9.3   254    16.5   999.00    691.3      0.0    -1436       0   999.0        0     0.0
 295    0:15   28.4   100   12.1   247    17.6   999.00    691.5      0.0    -1436       0   999.0        0     0.0
 295    0:20   28.3   100   13.8   243    16.5   999.00    691.5      0.0    -1437       0   999.0        0     0.0
 295    0:25   28.4   100    9.3   231    14.8   999.00    691.4      0.0    -1437       0   999.0        0     0.0
 295    0:30   28.5   100   13.1   225    18.5   999.00    691.3      0.0    -1436       0   999.0        0     0.0
 295    0:35   28.6   100   13.6   236    19.3   999.00    691.2      0.0    -1436       0   999.0        0     0.0
 295    0:40   28.8   100   16.7   240    21.3   999.00    691.1      0.0    -1436       0   999.0        0     0.0
 295    0:45   28.7   100   16.5   239    22.5   999.00    691.1      0.0    -1436       0   999.0        0     0.0
 295    0:50   28.3   100   13.7   232    17.6   999.00    691.1      0.0    -1436       0   999.0        0     0.0
 295    0:55   27.8   100   12.2   234    16.3   999.00    691.1      0.0    -1436       0   999.0        0     0.0
 295    1:00   27.6   100   10.2   235    14.3   999.00    691.1      0.0    -1436       0   999.0        0     0.0
 295    1:05   27.5   100   11.4   232    14.8   999.00    691.0      0.0    -1436       0   999.0        0     0.0
 295    1:10   27.8   100   13.5   232    17.8   999.00    690.9      0.0    -1436       0   999.0        0     0.0
 295    1:15   29.2   100   14.2   234    19.7   999.00    690.8      0.0    -1436       0   999.0        0     0.0
 295    1:20   29.3   100    9.1   228    14.6   999.00    690.7      0.0    -1436       0   999.0        0     0.0
 295    1:25   29.3   100    4.9   216     7.8   999.00    690.6      0.0    -1436       0   999.0        0     0.0
 295    1:30   29.4   100   11.5   233    16.7   999.00    690.8      0.0    -1436       0   999.0        0     0.0
 295    1:35   29.3   100   12.1   231    17.6   999.00    691.0      0.0    -1436       0   999.0        0     0.0
 295    1:40   29.3   100    9.2   219    13.5   999.00    691.0      0.0    -1436       0   999.0        0     0.0
 295    1:45   29.0   100    9.0   220    15.8   999.00    690.9      0.0    -1436       0   999.0        0     0.0
 295    1:50   29.2   100   11.0   227    16.5   999.00    690.9      0.0    -1436       0   999.0        0     0.0
 295    1:55   29.1   100    9.8   221    14.8   999.00    690.9      0.0    -1436       0   999.0        0     0.0
 295    2:00   29.1   100   13.6   230    15.9   999.00    690.9      0.0    -1436       0   999.0        0     0.0
 295    2:05   29.3   100   12.9   239    16.5   999.00    691.0      0.0    -1436       0   999.0        0     0.0
 295    2:10   29.3   100   12.0   248    15.2   999.00    690.8      0.0    -1436       0   999.0        0     0.0
 295    2:15   29.4   100   11.4   246    14.6   999.00    690.8      0.0    -1436       0   999.0        0     0.0
 295    2:20   29.4   100   11.6   246    15.6   999.00    690.7      0.0    -1436       0   999.0        0     0.0
 295    2:25   29.5   100   10.5   258    16.9   999.00    690.8      0.0    -1436       0   999.0        0     0.0
 295    2:30   29.4   100   10.5   255    14.3   999.00    690.8      0.0    -1436       0   999.0        0     0.0
 295    2:35   29.3   100   10.1   255    13.9   999.00    690.8      0.0    -1436       0   999.0        0     0.0
 295    2:40   29.3   100    9.5   250    13.3   999.00    690.8      0.0    -1436       0   999.0        0     0.0
 295    2:45   29.5   100   10.8   234    13.3   999.00    690.7      0.0    -1436       0   999.0        0     0.0
 295    2:50   29.5   100   10.6   230    14.1   999.00    690.7      0.0    -1436       0   999.0        0     0.0
 295    2:55   29.7   100   10.6   235    13.5   999.00    690.7      0.0    -1436       0   999.0        0     0.0
 295    3:00   29.8   100   12.4   236    15.8   999.00    690.7      0.0    -1436       0   999.0        0     0.0
 295    3:05   29.8   100   12.3   236    15.9   999.00    690.8      0.0    -1436       0   999.0        0     0.0
 295    3:10   29.9   100   12.1   231    15.2   999.00    690.8      0.0    -1436       0   999.0        0     0.0
 295    3:15   29.8   100   11.4   234    13.5   999.00    690.8      0.0    -1436       0   999.0        0     0.0
 295    3:20   29.7   100    9.4   227    13.7   999.00    690.8      0.0    -1436       0   999.0        0     0.0
 295    3:25   29.7   100   10.6   222    14.6   999.00    690.8      0.0    -1436       0   999.0        0     0.0
 295    3:30   29.7   100    9.7   220    13.2   999.00    690.9      0.0    -1436       0   999.0        0     0.0

Return to DRI Storm Peak Lab. graphs page.


Western Regional Climate Center,wrcc@dri.edu